sensor_id;sensor_type;location;lat;lon;timestamp;temperature;humidity
20680;DHT22;10499;47.494;7.608;2022-12-07T00:01:27;6.10;99.90
20680;DHT22;10499;47.494;7.608;2022-12-07T00:03:55;6.10;99.90
20680;DHT22;10499;47.494;7.608;2022-12-07T00:06:29;6.20;99.90
20680;DHT22;10499;47.494;7.608;2022-12-07T00:08:54;6.20;99.90
20680;DHT22;10499;47.494;7.608;2022-12-07T00:11:22;6.20;99.90
20680;DHT22;10499;47.494;7.608;2022-12-07T00:13:52;6.10;99.90
20680;DHT22;10499;47.494;7.608;2022-12-07T00:16:21;6.20;99.90
20680;DHT22;10499;47.494;7.608;2022-12-07T00:18:48;6.20;99.90
20680;DHT22;10499;47.494;7.608;2022-12-07T00:21:17;6.20;99.90
20680;DHT22;10499;47.494;7.608;2022-12-07T00:23:44;6.20;99.90
20680;DHT22;10499;47.494;7.608;2022-12-07T00:26:27;6.10;99.90
20680;DHT22;10499;47.494;7.608;2022-12-07T00:28:55;6.10;99.90
20680;DHT22;10499;47.494;7.608;2022-12-07T00:31:25;6.10;99.90
20680;DHT22;10499;47.494;7.608;2022-12-07T00:33:51;6.20;99.90
20680;DHT22;10499;47.494;7.608;2022-12-07T00:36:19;6.00;99.90
20680;DHT22;10499;47.494;7.608;2022-12-07T00:38:45;6.10;99.90
20680;DHT22;10499;47.494;7.608;2022-12-07T00:41:17;6.10;99.90
20680;DHT22;10499;47.494;7.608;2022-12-07T00:43:45;6.10;99.90
20680;DHT22;10499;47.494;7.608;2022-12-07T00:46:12;6.00;99.90
20680;DHT22;10499;47.494;7.608;2022-12-07T00:48:38;6.00;99.90
20680;DHT22;10499;47.494;7.608;2022-12-07T00:51:04;6.00;99.90
20680;DHT22;10499;47.494;7.608;2022-12-07T00:53:31;6.00;99.90
20680;DHT22;10499;47.494;7.608;2022-12-07T00:56:08;6.00;99.90
20680;DHT22;10499;47.494;7.608;2022-12-07T00:58:34;5.90;99.90
20680;DHT22;10499;47.494;7.608;2022-12-07T01:01:04;6.00;99.90
20680;DHT22;10499;47.494;7.608;2022-12-07T01:03:30;6.00;99.90
20680;DHT22;10499;47.494;7.608;2022-12-07T01:05:56;5.90;99.90
20680;DHT22;10499;47.494;7.608;2022-12-07T01:08:22;5.80;99.90
20680;DHT22;10499;47.494;7.608;2022-12-07T01:13:15;5.90;99.90
20680;DHT22;10499;47.494;7.608;2022-12-07T01:15:42;5.90;99.90
20680;DHT22;10499;47.494;7.608;2022-12-07T01:23:01;5.70;99.90
20680;DHT22;10499;47.494;7.608;2022-12-07T01:25:27;5.70;99.90
20680;DHT22;10499;47.494;7.608;2022-12-07T01:27:53;5.70;99.90
20680;DHT22;10499;47.494;7.608;2022-12-07T01:30:18;5.70;99.90
20680;DHT22;10499;47.494;7.608;2022-12-07T01:32:44;5.80;99.90
20680;DHT22;10499;47.494;7.608;2022-12-07T01:35:09;5.90;99.90
20680;DHT22;10499;47.494;7.608;2022-12-07T01:37:36;5.90;99.90
20680;DHT22;10499;47.494;7.608;2022-12-07T01:40:07;6.00;99.90
20680;DHT22;10499;47.494;7.608;2022-12-07T01:42:34;5.80;99.90
20680;DHT22;10499;47.494;7.608;2022-12-07T01:47:46;5.80;99.90
20680;DHT22;10499;47.494;7.608;2022-12-07T01:50:14;5.80;99.90
20680;DHT22;10499;47.494;7.608;2022-12-07T01:52:40;5.70;99.90
20680;DHT22;10499;47.494;7.608;2022-12-07T01:55:10;5.70;99.90
20680;DHT22;10499;47.494;7.608;2022-12-07T01:57:41;5.70;99.90
20680;DHT22;10499;47.494;7.608;2022-12-07T02:00:09;5.70;99.90
20680;DHT22;10499;47.494;7.608;2022-12-07T02:02:46;5.60;99.90
20680;DHT22;10499;47.494;7.608;2022-12-07T02:05:13;5.60;99.90
20680;DHT22;10499;47.494;7.608;2022-12-07T02:07:39;5.70;99.90
20680;DHT22;10499;47.494;7.608;2022-12-07T02:10:20;5.70;99.90
20680;DHT22;10499;47.494;7.608;2022-12-07T02:12:49;5.70;99.90
20680;DHT22;10499;47.494;7.608;2022-12-07T02:15:17;5.70;99.90
20680;DHT22;10499;47.494;7.608;2022-12-07T02:18:09;5.50;99.90
20680;DHT22;10499;47.494;7.608;2022-12-07T02:20:57;5.60;99.90
20680;DHT22;10499;47.494;7.608;2022-12-07T02:23:40;5.60;99.90
20680;DHT22;10499;47.494;7.608;2022-12-07T02:29:23;5.70;99.90
20680;DHT22;10499;47.494;7.608;2022-12-07T02:35:01;5.30;99.90
20680;DHT22;10499;47.494;7.608;2022-12-07T02:40:10;5.40;99.90
20680;DHT22;10499;47.494;7.608;2022-12-07T02:42:42;5.50;99.90
20680;DHT22;10499;47.494;7.608;2022-12-07T02:45:10;5.40;99.90
20680;DHT22;10499;47.494;7.608;2022-12-07T02:47:37;5.30;99.90
20680;DHT22;10499;47.494;7.608;2022-12-07T02:50:06;5.30;99.90
20680;DHT22;10499;47.494;7.608;2022-12-07T02:52:32;5.30;99.90
20680;DHT22;10499;47.494;7.608;2022-12-07T02:54:58;5.30;99.90
20680;DHT22;10499;47.494;7.608;2022-12-07T03:00:12;5.30;99.90
20680;DHT22;10499;47.494;7.608;2022-12-07T03:03:00;5.30;99.90
20680;DHT22;10499;47.494;7.608;2022-12-07T03:05:59;5.30;99.90
20680;DHT22;10499;47.494;7.608;2022-12-07T03:11:13;5.30;99.90
20680;DHT22;10499;47.494;7.608;2022-12-07T03:16:21;5.30;99.90
20680;DHT22;10499;47.494;7.608;2022-12-07T03:19:01;5.40;99.90
20680;DHT22;10499;47.494;7.608;2022-12-07T03:21:33;5.50;99.90
20680;DHT22;10499;47.494;7.608;2022-12-07T03:24:05;5.40;99.90
20680;DHT22;10499;47.494;7.608;2022-12-07T03:26:35;5.50;99.90
20680;DHT22;10499;47.494;7.608;2022-12-07T03:29:06;5.50;99.90
20680;DHT22;10499;47.494;7.608;2022-12-07T03:31:38;5.50;99.90
20680;DHT22;10499;47.494;7.608;2022-12-07T03:34:21;5.30;99.90
20680;DHT22;10499;47.494;7.608;2022-12-07T03:36:57;5.30;99.90
20680;DHT22;10499;47.494;7.608;2022-12-07T03:39:41;5.40;99.90
20680;DHT22;10499;47.494;7.608;2022-12-07T03:42:10;5.40;99.90
20680;DHT22;10499;47.494;7.608;2022-12-07T03:44:36;5.40;99.90
20680;DHT22;10499;47.494;7.608;2022-12-07T03:47:12;5.40;99.90
20680;DHT22;10499;47.494;7.608;2022-12-07T03:52:59;5.40;99.90
20680;DHT22;10499;47.494;7.608;2022-12-07T03:55:30;5.40;99.90
20680;DHT22;10499;47.494;7.608;2022-12-07T03:58:01;5.30;99.90
20680;DHT22;10499;47.494;7.608;2022-12-07T04:00:28;5.40;99.90
20680;DHT22;10499;47.494;7.608;2022-12-07T04:02:55;5.40;99.90
20680;DHT22;10499;47.494;7.608;2022-12-07T04:05:21;5.40;99.90
20680;DHT22;10499;47.494;7.608;2022-12-07T04:07:47;5.30;99.90
20680;DHT22;10499;47.494;7.608;2022-12-07T04:10:13;5.20;99.90
20680;DHT22;10499;47.494;7.608;2022-12-07T04:12:39;5.20;99.90
20680;DHT22;10499;47.494;7.608;2022-12-07T04:15:05;5.20;99.90
20680;DHT22;10499;47.494;7.608;2022-12-07T04:17:31;5.30;99.90
20680;DHT22;10499;47.494;7.608;2022-12-07T04:22:23;5.20;99.90
20680;DHT22;10499;47.494;7.608;2022-12-07T04:24:48;5.20;99.90
20680;DHT22;10499;47.494;7.608;2022-12-07T04:27:14;5.10;99.90
20680;DHT22;10499;47.494;7.608;2022-12-07T04:32:06;5.30;99.90
20680;DHT22;10499;47.494;7.608;2022-12-07T04:34:32;5.30;99.90
20680;DHT22;10499;47.494;7.608;2022-12-07T04:36:57;5.30;99.90
20680;DHT22;10499;47.494;7.608;2022-12-07T04:39:31;5.30;99.90
20680;DHT22;10499;47.494;7.608;2022-12-07T04:41:57;5.40;99.90
20680;DHT22;10499;47.494;7.608;2022-12-07T04:44:25;5.30;99.90
20680;DHT22;10499;47.494;7.608;2022-12-07T04:46:52;5.20;99.90
20680;DHT22;10499;47.494;7.608;2022-12-07T04:49:18;5.10;99.90
20680;DHT22;10499;47.494;7.608;2022-12-07T04:51:45;5.20;99.90
20680;DHT22;10499;47.494;7.608;2022-12-07T04:54:11;5.20;99.90
20680;DHT22;10499;47.494;7.608;2022-12-07T04:56:37;5.20;99.90
20680;DHT22;10499;47.494;7.608;2022-12-07T04:59:04;5.20;99.90
20680;DHT22;10499;47.494;7.608;2022-12-07T05:01:30;5.10;99.90
20680;DHT22;10499;47.494;7.608;2022-12-07T05:03:56;5.10;99.90
20680;DHT22;10499;47.494;7.608;2022-12-07T05:06:21;5.20;99.90
20680;DHT22;10499;47.494;7.608;2022-12-07T05:08:47;5.10;99.90
20680;DHT22;10499;47.494;7.608;2022-12-07T05:11:13;5.20;99.90
20680;DHT22;10499;47.494;7.608;2022-12-07T05:13:59;5.10;99.90
20680;DHT22;10499;47.494;7.608;2022-12-07T05:16:25;5.00;99.90
20680;DHT22;10499;47.494;7.608;2022-12-07T05:18:51;5.00;99.90
20680;DHT22;10499;47.494;7.608;2022-12-07T05:21:16;5.00;99.90
20680;DHT22;10499;47.494;7.608;2022-12-07T05:23:42;5.10;99.90
20680;DHT22;10499;47.494;7.608;2022-12-07T05:26:07;5.20;99.90
20680;DHT22;10499;47.494;7.608;2022-12-07T05:28:33;5.20;99.90
20680;DHT22;10499;47.494;7.608;2022-12-07T05:30:59;5.10;99.90
20680;DHT22;10499;47.494;7.608;2022-12-07T05:33:24;5.10;99.90
20680;DHT22;10499;47.494;7.608;2022-12-07T05:35:50;5.00;99.90
20680;DHT22;10499;47.494;7.608;2022-12-07T05:38:15;5.00;99.90
20680;DHT22;10499;47.494;7.608;2022-12-07T05:43:07;5.00;99.90
20680;DHT22;10499;47.494;7.608;2022-12-07T05:45:33;4.90;99.90
20680;DHT22;10499;47.494;7.608;2022-12-07T05:47:58;4.90;99.90
20680;DHT22;10499;47.494;7.608;2022-12-07T05:50:24;4.90;99.90
20680;DHT22;10499;47.494;7.608;2022-12-07T05:52:50;4.90;99.90
20680;DHT22;10499;47.494;7.608;2022-12-07T05:55:15;4.90;99.90
20680;DHT22;10499;47.494;7.608;2022-12-07T05:57:41;4.90;99.90
20680;DHT22;10499;47.494;7.608;2022-12-07T06:00:27;5.00;99.90
20680;DHT22;10499;47.494;7.608;2022-12-07T06:02:52;5.00;99.90
20680;DHT22;10499;47.494;7.608;2022-12-07T06:05:18;4.90;99.90
20680;DHT22;10499;47.494;7.608;2022-12-07T06:07:43;5.00;99.90
20680;DHT22;10499;47.494;7.608;2022-12-07T06:10:09;5.00;99.90
20680;DHT22;10499;47.494;7.608;2022-12-07T06:12:35;5.00;99.90
20680;DHT22;10499;47.494;7.608;2022-12-07T06:15:02;5.10;99.90
20680;DHT22;10499;47.494;7.608;2022-12-07T06:17:28;5.20;99.90
20680;DHT22;10499;47.494;7.608;2022-12-07T06:19:54;5.10;99.90
20680;DHT22;10499;47.494;7.608;2022-12-07T06:22:19;5.10;99.90
20680;DHT22;10499;47.494;7.608;2022-12-07T06:24:45;5.20;99.90
20680;DHT22;10499;47.494;7.608;2022-12-07T06:27:11;5.20;99.90
20680;DHT22;10499;47.494;7.608;2022-12-07T06:29:37;5.20;99.90
20680;DHT22;10499;47.494;7.608;2022-12-07T06:32:03;5.20;99.90
20680;DHT22;10499;47.494;7.608;2022-12-07T06:34:29;5.20;99.90
20680;DHT22;10499;47.494;7.608;2022-12-07T06:36:54;5.10;99.90
20680;DHT22;10499;47.494;7.608;2022-12-07T06:39:23;5.20;99.90
20680;DHT22;10499;47.494;7.608;2022-12-07T06:41:49;5.20;99.90
20680;DHT22;10499;47.494;7.608;2022-12-07T06:44:17;5.20;99.90
20680;DHT22;10499;47.494;7.608;2022-12-07T06:46:43;5.20;99.90
20680;DHT22;10499;47.494;7.608;2022-12-07T06:49:08;5.20;99.90
20680;DHT22;10499;47.494;7.608;2022-12-07T06:51:34;5.10;99.90
20680;DHT22;10499;47.494;7.608;2022-12-07T06:54:08;5.10;99.90
20680;DHT22;10499;47.494;7.608;2022-12-07T06:56:33;5.00;99.90
20680;DHT22;10499;47.494;7.608;2022-12-07T06:58:59;5.00;99.90
20680;DHT22;10499;47.494;7.608;2022-12-07T07:01:25;5.00;99.90
20680;DHT22;10499;47.494;7.608;2022-12-07T07:03:50;5.00;99.90
20680;DHT22;10499;47.494;7.608;2022-12-07T07:06:16;5.00;99.90
20680;DHT22;10499;47.494;7.608;2022-12-07T07:08:42;5.00;99.90
20680;DHT22;10499;47.494;7.608;2022-12-07T07:11:08;5.10;99.90
20680;DHT22;10499;47.494;7.608;2022-12-07T07:13:34;5.00;99.90
20680;DHT22;10499;47.494;7.608;2022-12-07T07:16:00;5.00;99.90
20680;DHT22;10499;47.494;7.608;2022-12-07T07:18:26;5.10;99.90
20680;DHT22;10499;47.494;7.608;2022-12-07T07:20:53;5.10;99.90
20680;DHT22;10499;47.494;7.608;2022-12-07T07:23:19;5.10;99.90
20680;DHT22;10499;47.494;7.608;2022-12-07T07:25:46;5.10;99.90
20680;DHT22;10499;47.494;7.608;2022-12-07T07:28:11;5.10;99.90
20680;DHT22;10499;47.494;7.608;2022-12-07T07:30:37;5.10;99.90
20680;DHT22;10499;47.494;7.608;2022-12-07T07:33:04;5.20;99.90
20680;DHT22;10499;47.494;7.608;2022-12-07T07:35:31;5.20;99.90
20680;DHT22;10499;47.494;7.608;2022-12-07T07:37:57;5.30;99.90
20680;DHT22;10499;47.494;7.608;2022-12-07T07:40:23;5.30;99.90
20680;DHT22;10499;47.494;7.608;2022-12-07T07:42:52;5.40;99.90
20680;DHT22;10499;47.494;7.608;2022-12-07T07:45:19;5.40;99.90
20680;DHT22;10499;47.494;7.608;2022-12-07T07:47:45;5.40;99.90
20680;DHT22;10499;47.494;7.608;2022-12-07T07:50:11;5.50;99.90
20680;DHT22;10499;47.494;7.608;2022-12-07T07:52:37;5.60;99.90
20680;DHT22;10499;47.494;7.608;2022-12-07T07:55:03;5.50;99.90
20680;DHT22;10499;47.494;7.608;2022-12-07T07:57:28;5.60;99.90
20680;DHT22;10499;47.494;7.608;2022-12-07T07:59:54;5.60;99.90
20680;DHT22;10499;47.494;7.608;2022-12-07T08:02:20;5.60;99.90
20680;DHT22;10499;47.494;7.608;2022-12-07T08:04:47;5.60;99.90
20680;DHT22;10499;47.494;7.608;2022-12-07T08:07:14;5.70;99.90
20680;DHT22;10499;47.494;7.608;2022-12-07T08:09:40;5.60;99.90
20680;DHT22;10499;47.494;7.608;2022-12-07T08:12:06;5.70;99.90
20680;DHT22;10499;47.494;7.608;2022-12-07T08:19:25;5.80;99.90
20680;DHT22;10499;47.494;7.608;2022-12-07T08:21:51;5.80;99.90
20680;DHT22;10499;47.494;7.608;2022-12-07T08:24:17;6.00;99.90
20680;DHT22;10499;47.494;7.608;2022-12-07T08:26:43;6.10;99.90
20680;DHT22;10499;47.494;7.608;2022-12-07T08:29:09;6.00;99.90
20680;DHT22;10499;47.494;7.608;2022-12-07T08:31:35;6.00;99.90
20680;DHT22;10499;47.494;7.608;2022-12-07T08:34:01;6.00;99.90
20680;DHT22;10499;47.494;7.608;2022-12-07T08:36:27;6.10;99.90
20680;DHT22;10499;47.494;7.608;2022-12-07T08:38:52;6.20;99.90
20680;DHT22;10499;47.494;7.608;2022-12-07T08:41:18;6.30;99.90
20680;DHT22;10499;47.494;7.608;2022-12-07T08:43:44;6.20;99.90
20680;DHT22;10499;47.494;7.608;2022-12-07T08:46:18;6.20;99.90
20680;DHT22;10499;47.494;7.608;2022-12-07T08:49:49;6.30;99.90
20680;DHT22;10499;47.494;7.608;2022-12-07T08:51:44;6.50;99.90
20680;DHT22;10499;47.494;7.608;2022-12-07T08:54:17;6.70;99.90
20680;DHT22;10499;47.494;7.608;2022-12-07T08:56:44;6.70;99.90
20680;DHT22;10499;47.494;7.608;2022-12-07T08:59:13;6.70;99.90
20680;DHT22;10499;47.494;7.608;2022-12-07T09:01:39;6.80;99.90
20680;DHT22;10499;47.494;7.608;2022-12-07T09:04:05;6.80;99.90
20680;DHT22;10499;47.494;7.608;2022-12-07T09:06:30;6.60;99.90
20680;DHT22;10499;47.494;7.608;2022-12-07T09:08:58;6.70;99.90
20680;DHT22;10499;47.494;7.608;2022-12-07T09:11:25;6.90;99.90
20680;DHT22;10499;47.494;7.608;2022-12-07T09:13:51;6.90;99.90
20680;DHT22;10499;47.494;7.608;2022-12-07T09:16:17;6.90;99.90
20680;DHT22;10499;47.494;7.608;2022-12-07T09:18:42;6.70;99.90
20680;DHT22;10499;47.494;7.608;2022-12-07T09:21:08;6.60;99.90
20680;DHT22;10499;47.494;7.608;2022-12-07T09:23:34;6.50;99.90
20680;DHT22;10499;47.494;7.608;2022-12-07T09:26:01;6.50;99.90
20680;DHT22;10499;47.494;7.608;2022-12-07T09:28:27;6.60;99.90
20680;DHT22;10499;47.494;7.608;2022-12-07T09:30:52;6.50;99.90
20680;DHT22;10499;47.494;7.608;2022-12-07T09:33:18;6.50;99.90
20680;DHT22;10499;47.494;7.608;2022-12-07T09:35:45;6.50;99.90
20680;DHT22;10499;47.494;7.608;2022-12-07T09:38:11;6.40;99.90
20680;DHT22;10499;47.494;7.608;2022-12-07T09:40:37;6.30;99.90
20680;DHT22;10499;47.494;7.608;2022-12-07T09:43:03;6.30;99.90
20680;DHT22;10499;47.494;7.608;2022-12-07T09:45:33;6.10;99.90
20680;DHT22;10499;47.494;7.608;2022-12-07T09:48:00;6.20;99.90
20680;DHT22;10499;47.494;7.608;2022-12-07T09:50:27;6.40;99.90
20680;DHT22;10499;47.494;7.608;2022-12-07T09:52:56;6.60;99.90
20680;DHT22;10499;47.494;7.608;2022-12-07T09:55:29;6.50;99.90
20680;DHT22;10499;47.494;7.608;2022-12-07T09:57:55;6.40;99.90
20680;DHT22;10499;47.494;7.608;2022-12-07T10:00:22;6.40;99.90
20680;DHT22;10499;47.494;7.608;2022-12-07T10:05:38;6.20;99.90
20680;DHT22;10499;47.494;7.608;2022-12-07T10:08:07;6.10;99.90
20680;DHT22;10499;47.494;7.608;2022-12-07T10:10:35;6.00;99.90
20680;DHT22;10499;47.494;7.608;2022-12-07T10:13:07;5.90;99.90
20680;DHT22;10499;47.494;7.608;2022-12-07T10:15:54;5.80;99.90
20680;DHT22;10499;47.494;7.608;2022-12-07T10:23:41;5.80;99.90
20680;DHT22;10499;47.494;7.608;2022-12-07T10:26:26;5.90;99.90
20680;DHT22;10499;47.494;7.608;2022-12-07T10:28:53;6.40;99.90
20680;DHT22;10499;47.494;7.608;2022-12-07T10:31:21;6.40;99.90
20680;DHT22;10499;47.494;7.608;2022-12-07T10:33:59;7.10;99.90
20680;DHT22;10499;47.494;7.608;2022-12-07T10:36:37;12.60;83.50
20680;DHT22;10499;47.494;7.608;2022-12-07T10:39:17;13.80;72.20
20680;DHT22;10499;47.494;7.608;2022-12-07T10:44:30;17.20;58.30
20680;DHT22;10499;47.494;7.608;2022-12-07T10:47:21;18.40;54.90
20680;DHT22;10499;47.494;7.608;2022-12-07T10:55:56;21.10;47.20
20680;DHT22;10499;47.494;7.608;2022-12-07T11:01:33;15.10;56.50
20680;DHT22;10499;47.494;7.608;2022-12-07T11:15:11;12.50;66.50
20680;DHT22;10499;47.494;7.608;2022-12-07T11:18:06;11.30;69.30
20680;DHT22;10499;47.494;7.608;2022-12-07T11:20:41;10.60;72.10
20680;DHT22;10499;47.494;7.608;2022-12-07T11:29:11;10.30;74.00
20680;DHT22;10499;47.494;7.608;2022-12-07T11:32:13;10.90;73.80
20680;DHT22;10499;47.494;7.608;2022-12-07T11:39:58;17.30;53.90
20680;DHT22;10499;47.494;7.608;2022-12-07T11:42:29;18.50;51.40
20680;DHT22;10499;47.494;7.608;2022-12-07T11:45:12;22.00;45.80
20680;DHT22;10499;47.494;7.608;2022-12-07T11:56:13;19.40;64.50
20680;DHT22;10499;47.494;7.608;2022-12-07T12:09:53;19.70;82.10
20680;DHT22;10499;47.494;7.608;2022-12-07T12:24:37;18.70;70.70
20680;DHT22;10499;47.494;7.608;2022-12-07T12:42:48;19.50;73.50
20680;DHT22;10499;47.494;7.608;2022-12-07T12:45:28;20.30;70.40
20680;DHT22;10499;47.494;7.608;2022-12-07T12:48:09;20.50;68.70
20680;DHT22;10499;47.494;7.608;2022-12-07T12:51:35;20.90;68.80
20680;DHT22;10499;47.494;7.608;2022-12-07T12:54:08;21.60;66.80
20680;DHT22;10499;47.494;7.608;2022-12-07T12:57:26;21.10;66.80
20680;DHT22;10499;47.494;7.608;2022-12-07T12:59:31;21.00;67.60
20680;DHT22;10499;47.494;7.608;2022-12-07T13:23:54;19.50;68.80
20680;DHT22;10499;47.494;7.608;2022-12-07T13:26:42;18.90;70.80
20680;DHT22;10499;47.494;7.608;2022-12-07T13:29:20;18.50;72.20
20680;DHT22;10499;47.494;7.608;2022-12-07T13:31:51;19.70;70.90
20680;DHT22;10499;47.494;7.608;2022-12-07T13:39:32;18.80;71.20
20680;DHT22;10499;47.494;7.608;2022-12-07T13:41:59;18.90;72.50
20680;DHT22;10499;47.494;7.608;2022-12-07T13:44:28;18.50;73.10
20680;DHT22;10499;47.494;7.608;2022-12-07T13:47:19;18.80;72.90
20680;DHT22;10499;47.494;7.608;2022-12-07T13:49:52;17.60;75.10
20680;DHT22;10499;47.494;7.608;2022-12-07T13:54:59;18.20;74.00
20680;DHT22;10499;47.494;7.608;2022-12-07T13:57:26;16.70;75.80
20680;DHT22;10499;47.494;7.608;2022-12-07T13:59:52;16.70;76.70
20680;DHT22;10499;47.494;7.608;2022-12-07T14:02:26;16.90;75.50
20680;DHT22;10499;47.494;7.608;2022-12-07T14:05:09;17.30;75.30
20680;DHT22;10499;47.494;7.608;2022-12-07T14:07:35;17.60;74.60
20680;DHT22;10499;47.494;7.608;2022-12-07T14:10:06;16.50;76.40
20680;DHT22;10499;47.494;7.608;2022-12-07T14:12:32;14.40;81.10
20680;DHT22;10499;47.494;7.608;2022-12-07T14:15:01;13.50;84.90
20680;DHT22;10499;47.494;7.608;2022-12-07T14:17:27;12.80;86.30
20680;DHT22;10499;47.494;7.608;2022-12-07T14:19:58;12.40;88.40
20680;DHT22;10499;47.494;7.608;2022-12-07T14:22:36;13.00;88.50
20680;DHT22;10499;47.494;7.608;2022-12-07T14:25:17;13.10;88.60
20680;DHT22;10499;47.494;7.608;2022-12-07T14:30:17;13.60;88.10
20680;DHT22;10499;47.494;7.608;2022-12-07T14:32:43;13.80;87.10
20680;DHT22;10499;47.494;7.608;2022-12-07T14:35:15;13.60;87.30
20680;DHT22;10499;47.494;7.608;2022-12-07T14:37:44;13.90;86.40
20680;DHT22;10499;47.494;7.608;2022-12-07T14:40:25;13.70;86.60
20680;DHT22;10499;47.494;7.608;2022-12-07T15:00:21;12.20;95.40
20680;DHT22;10499;47.494;7.608;2022-12-07T15:29:41;8.10;98.40
20680;DHT22;10499;47.494;7.608;2022-12-07T15:32:06;7.90;97.80
20680;DHT22;10499;47.494;7.608;2022-12-07T15:34:32;7.70;96.60
20680;DHT22;10499;47.494;7.608;2022-12-07T15:36:58;7.50;96.50
20680;DHT22;10499;47.494;7.608;2022-12-07T15:39:23;7.40;97.00
20680;DHT22;10499;47.494;7.608;2022-12-07T15:41:49;7.30;97.70
20680;DHT22;10499;47.494;7.608;2022-12-07T15:44:15;7.50;98.60
20680;DHT22;10499;47.494;7.608;2022-12-07T15:46:59;7.30;98.20
20680;DHT22;10499;47.494;7.608;2022-12-07T15:49:25;7.30;99.10
20680;DHT22;10499;47.494;7.608;2022-12-07T15:51:51;7.20;99.90
20680;DHT22;10499;47.494;7.608;2022-12-07T15:54:28;7.20;99.00
20680;DHT22;10499;47.494;7.608;2022-12-07T15:56:54;7.30;99.20
20680;DHT22;10499;47.494;7.608;2022-12-07T15:59:20;7.20;99.40
20680;DHT22;10499;47.494;7.608;2022-12-07T16:01:46;7.20;99.70
20680;DHT22;10499;47.494;7.608;2022-12-07T18:07:10;5.10;99.90
20680;DHT22;10499;47.494;7.608;2022-12-07T18:09:36;5.00;99.90
20680;DHT22;10499;47.494;7.608;2022-12-07T18:12:02;5.00;99.90
20680;DHT22;10499;47.494;7.608;2022-12-07T18:14:28;5.00;99.90
20680;DHT22;10499;47.494;7.608;2022-12-07T18:16:56;5.00;99.90
20680;DHT22;10499;47.494;7.608;2022-12-07T18:19:21;5.00;99.90
20680;DHT22;10499;47.494;7.608;2022-12-07T18:21:47;4.90;99.90
20680;DHT22;10499;47.494;7.608;2022-12-07T18:24:15;5.00;99.90
20680;DHT22;10499;47.494;7.608;2022-12-07T18:26:42;4.90;99.90
20680;DHT22;10499;47.494;7.608;2022-12-07T18:29:12;5.00;99.90
20680;DHT22;10499;47.494;7.608;2022-12-07T18:31:37;4.90;99.90
20680;DHT22;10499;47.494;7.608;2022-12-07T18:34:05;4.90;99.90
20680;DHT22;10499;47.494;7.608;2022-12-07T18:36:39;4.80;99.90
20680;DHT22;10499;47.494;7.608;2022-12-07T18:39:08;4.90;99.90
20680;DHT22;10499;47.494;7.608;2022-12-07T18:44:02;4.80;99.90
20680;DHT22;10499;47.494;7.608;2022-12-07T18:46:28;4.80;99.90
20680;DHT22;10499;47.494;7.608;2022-12-07T18:51:22;4.70;99.90
20680;DHT22;10499;47.494;7.608;2022-12-07T18:53:48;4.70;99.90
20680;DHT22;10499;47.494;7.608;2022-12-07T18:56:20;4.60;99.90
20680;DHT22;10499;47.494;7.608;2022-12-07T18:58:54;4.60;99.90
20680;DHT22;10499;47.494;7.608;2022-12-07T19:01:39;4.50;99.90
20680;DHT22;10499;47.494;7.608;2022-12-07T19:04:05;4.50;99.90
20680;DHT22;10499;47.494;7.608;2022-12-07T19:06:31;4.50;99.90
20680;DHT22;10499;47.494;7.608;2022-12-07T19:08:57;4.40;99.90
20680;DHT22;10499;47.494;7.608;2022-12-07T19:11:28;4.40;99.90
20680;DHT22;10499;47.494;7.608;2022-12-07T19:14:14;4.30;99.90
20680;DHT22;10499;47.494;7.608;2022-12-07T19:16:41;4.20;99.90
20680;DHT22;10499;47.494;7.608;2022-12-07T19:19:07;4.10;99.90
20680;DHT22;10499;47.494;7.608;2022-12-07T19:21:32;4.10;99.90
20680;DHT22;10499;47.494;7.608;2022-12-07T19:23:58;4.10;99.90
20680;DHT22;10499;47.494;7.608;2022-12-07T19:26:27;4.00;99.90
20680;DHT22;10499;47.494;7.608;2022-12-07T19:28:52;4.00;99.90
20680;DHT22;10499;47.494;7.608;2022-12-07T19:31:18;4.00;99.90
20680;DHT22;10499;47.494;7.608;2022-12-07T19:33:43;3.90;99.90
20680;DHT22;10499;47.494;7.608;2022-12-07T19:36:09;3.80;99.90
20680;DHT22;10499;47.494;7.608;2022-12-07T19:38:35;3.70;99.90
20680;DHT22;10499;47.494;7.608;2022-12-07T19:41:09;3.60;99.90
20680;DHT22;10499;47.494;7.608;2022-12-07T19:43:54;3.40;99.90
20680;DHT22;10499;47.494;7.608;2022-12-07T19:46:20;3.30;99.90
20680;DHT22;10499;47.494;7.608;2022-12-07T19:48:46;3.20;99.90
20680;DHT22;10499;47.494;7.608;2022-12-07T19:51:11;3.00;99.90
20680;DHT22;10499;47.494;7.608;2022-12-07T19:53:37;2.90;99.90
20680;DHT22;10499;47.494;7.608;2022-12-07T19:56:03;2.90;99.90
20680;DHT22;10499;47.494;7.608;2022-12-07T19:58:28;2.80;99.90
20680;DHT22;10499;47.494;7.608;2022-12-07T20:00:54;2.80;99.90
20680;DHT22;10499;47.494;7.608;2022-12-07T20:03:20;2.70;99.90
20680;DHT22;10499;47.494;7.608;2022-12-07T20:05:46;2.70;99.90
20680;DHT22;10499;47.494;7.608;2022-12-07T20:08:11;2.70;99.90
20680;DHT22;10499;47.494;7.608;2022-12-07T20:10:40;2.60;99.90
20680;DHT22;10499;47.494;7.608;2022-12-07T20:13:07;2.60;99.90
20680;DHT22;10499;47.494;7.608;2022-12-07T20:15:51;2.60;99.90
20680;DHT22;10499;47.494;7.608;2022-12-07T20:18:17;2.60;99.90
20680;DHT22;10499;47.494;7.608;2022-12-07T20:20:55;2.60;99.90
20680;DHT22;10499;47.494;7.608;2022-12-07T20:25:48;2.50;99.90
20680;DHT22;10499;47.494;7.608;2022-12-07T20:28:14;2.40;99.90
20680;DHT22;10499;47.494;7.608;2022-12-07T20:30:50;2.40;99.90
20680;DHT22;10499;47.494;7.608;2022-12-07T20:33:17;2.40;99.90
20680;DHT22;10499;47.494;7.608;2022-12-07T20:35:43;2.40;99.90
20680;DHT22;10499;47.494;7.608;2022-12-07T20:38:10;2.30;99.90
20680;DHT22;10499;47.494;7.608;2022-12-07T20:40:37;2.20;99.90
20680;DHT22;10499;47.494;7.608;2022-12-07T20:43:03;2.20;99.90
20680;DHT22;10499;47.494;7.608;2022-12-07T20:45:29;2.30;99.90
20680;DHT22;10499;47.494;7.608;2022-12-07T20:47:54;2.30;99.90
20680;DHT22;10499;47.494;7.608;2022-12-07T20:50:20;2.20;99.90
20680;DHT22;10499;47.494;7.608;2022-12-07T20:52:46;2.10;99.90
20680;DHT22;10499;47.494;7.608;2022-12-07T20:55:12;2.20;99.90
20680;DHT22;10499;47.494;7.608;2022-12-07T20:57:37;2.30;99.90
20680;DHT22;10499;47.494;7.608;2022-12-07T21:00:04;2.30;99.90
20680;DHT22;10499;47.494;7.608;2022-12-07T21:02:31;2.20;99.90
20680;DHT22;10499;47.494;7.608;2022-12-07T21:04:57;2.20;99.90
20680;DHT22;10499;47.494;7.608;2022-12-07T21:07:23;2.20;99.90
20680;DHT22;10499;47.494;7.608;2022-12-07T21:09:49;2.20;99.90
20680;DHT22;10499;47.494;7.608;2022-12-07T21:12:16;2.20;99.90
20680;DHT22;10499;47.494;7.608;2022-12-07T21:14:42;2.10;99.90
20680;DHT22;10499;47.494;7.608;2022-12-07T21:17:09;2.20;99.90
20680;DHT22;10499;47.494;7.608;2022-12-07T21:19:35;2.30;99.90
20680;DHT22;10499;47.494;7.608;2022-12-07T21:22:01;2.30;99.90
20680;DHT22;10499;47.494;7.608;2022-12-07T21:24:27;2.40;99.90
20680;DHT22;10499;47.494;7.608;2022-12-07T21:26:52;2.50;99.90
20680;DHT22;10499;47.494;7.608;2022-12-07T21:29:18;2.50;99.90
20680;DHT22;10499;47.494;7.608;2022-12-07T21:31:43;2.60;99.90
20680;DHT22;10499;47.494;7.608;2022-12-07T21:34:09;2.70;99.90
20680;DHT22;10499;47.494;7.608;2022-12-07T21:36:35;2.70;99.90